Time;durP1;ratioP1;P1;durP2;ratioP2;P2;SDS_P1;SDS_P2;PMS_P1;PMS_P2;Temp;Humidity;BMP_temperature;BMP_pressure;BME280_temperature;BME280_humidity;BME280_pressure;Samples;Min_cycle;Max_cycle;Signal;HPM_P1;HPM_P2
2023/06/17 00:02:13;;;;;;;;;;;26.60;57.40;;;;;;7380546;19;20147;-72
2023/06/17 00:04:42;;;;;;;;;;;26.60;57.10;;;;;;7380025;19;19954;-72
2023/06/17 00:07:13;;;;;;;;;;;26.60;57.00;;;;;;7380761;19;19903;-72
2023/06/17 00:09:44;;;;;;;;;;;26.60;57.20;;;;;;7379820;19;19914;-72
2023/06/17 00:12:12;;;;;;;;;;;26.50;57.50;;;;;;7380896;19;19966;-72
2023/06/17 00:14:41;;;;;;;;;;;26.60;58.10;;;;;;7399960;19;19928;-73
2023/06/17 00:17:12;;;;;;;;;;;26.60;58.20;;;;;;7386340;19;20196;-73
2023/06/17 00:19:41;;;;;;;;;;;26.50;58.00;;;;;;7398547;19;20282;-73
2023/06/17 00:22:13;;;;;;;;;;;26.50;58.10;;;;;;7399958;19;19911;-72
2023/06/17 00:24:43;;;;;;;;;;;26.40;57.90;;;;;;7390550;19;19922;-73
2023/06/17 00:27:11;;;;;;;;;;;26.40;58.30;;;;;;7386609;19;19922;-73
2023/06/17 00:29:40;;;;;;;;;;;26.50;58.50;;;;;;7409032;19;19915;-73
2023/06/17 00:32:08;;;;;;;;;;;26.40;58.10;;;;;;7386524;19;19918;-73
2023/06/17 00:34:37;;;;;;;;;;;26.40;58.20;;;;;;7386585;19;19918;-73
2023/06/17 00:37:05;;;;;;;;;;;26.40;58.20;;;;;;7388590;19;19906;-73
2023/06/17 00:39:39;;;;;;;;;;;26.30;58.00;;;;;;7386867;19;19967;-72
2023/06/17 00:42:08;;;;;;;;;;;26.30;58.00;;;;;;7386824;19;19907;-73
2023/06/17 00:44:39;;;;;;;;;;;26.20;57.90;;;;;;7406600;19;19918;-72
2023/06/17 00:47:08;;;;;;;;;;;26.20;57.80;;;;;;7384619;19;19935;-73
2023/06/17 00:49:38;;;;;;;;;;;26.10;58.30;;;;;;7385778;19;19927;-72
2023/06/17 00:52:07;;;;;;;;;;;26.10;59.50;;;;;;7386348;19;19902;-73
2023/06/17 00:54:39;;;;;;;;;;;26.10;59.60;;;;;;7386580;19;19924;-73
2023/06/17 00:57:10;;;;;;;;;;;26.10;59.50;;;;;;7386646;19;19915;-72
2023/06/17 00:59:39;;;;;;;;;;;26.10;59.30;;;;;;7407512;19;19911;-72
2023/06/17 01:02:09;;;;;;;;;;;26.00;58.80;;;;;;7385562;19;19952;-73
2023/06/17 01:04:38;;;;;;;;;;;26.00;59.10;;;;;;7384828;19;19910;-73
2023/06/17 01:07:12;;;;;;;;;;;26.00;59.20;;;;;;7383215;19;19917;-72
2023/06/17 01:09:48;;;;;;;;;;;26.00;59.00;;;;;;7384970;19;19918;-72
2023/06/17 01:12:17;;;;;;;;;;;26.00;58.90;;;;;;7383992;19;19915;-73
2023/06/17 01:14:49;;;;;;;;;;;26.00;58.80;;;;;;7407095;19;19927;-73
2023/06/17 01:17:18;;;;;;;;;;;25.90;58.80;;;;;;7386289;19;19935;-73
2023/06/17 01:19:48;;;;;;;;;;;25.90;58.80;;;;;;7387165;19;20223;-73
2023/06/17 01:22:18;;;;;;;;;;;25.80;58.80;;;;;;7385813;19;19907;-73
2023/06/17 01:24:50;;;;;;;;;;;25.80;59.50;;;;;;7392815;19;19907;-74
2023/06/17 01:27:18;;;;;;;;;;;25.80;59.50;;;;;;7383177;19;19970;-73
2023/06/17 01:29:49;;;;;;;;;;;25.80;59.80;;;;;;7406805;19;20164;-73
2023/06/17 01:32:18;;;;;;;;;;;25.80;59.60;;;;;;7385349;19;19927;-73
2023/06/17 01:34:49;;;;;;;;;;;25.80;59.50;;;;;;7384689;19;19911;-73
2023/06/17 01:37:22;;;;;;;;;;;25.80;59.50;;;;;;7383822;19;19922;-73
2023/06/17 01:39:56;;;;;;;;;;;25.80;59.30;;;;;;7384803;19;19906;-73
2023/06/17 01:42:28;;;;;;;;;;;25.80;59.30;;;;;;7384967;19;20215;-72
2023/06/17 01:44:57;;;;;;;;;;;25.80;59.40;;;;;;7382499;19;19923;-73
2023/06/17 01:47:26;;;;;;;;;;;25.80;60.00;;;;;;7404532;19;20267;-72
2023/06/17 01:49:54;;;;;;;;;;;25.80;60.50;;;;;;7383868;19;19987;-73
2023/06/17 01:52:22;;;;;;;;;;;25.70;60.50;;;;;;7383363;19;19911;-72
2023/06/17 01:54:53;;;;;;;;;;;25.70;60.30;;;;;;7384475;19;19970;-72
2023/06/17 01:57:22;;;;;;;;;;;25.60;60.30;;;;;;7383443;19;19916;-72
2023/06/17 01:59:51;;;;;;;;;;;25.50;60.50;;;;;;7383954;19;19931;-72
2023/06/17 02:02:19;;;;;;;;;;;25.40;60.80;;;;;;7405053;19;20149;-72
2023/06/17 02:04:48;;;;;;;;;;;25.30;60.50;;;;;;7383450;19;19915;-72
2023/06/17 02:07:17;;;;;;;;;;;25.30;60.70;;;;;;7382004;19;19907;-72
2023/06/17 02:09:45;;;;;;;;;;;25.30;60.60;;;;;;7383776;19;19903;-72
2023/06/17 02:12:16;;;;;;;;;;;25.30;61.00;;;;;;7384353;19;19974;-72
2023/06/17 02:14:46;;;;;;;;;;;25.30;61.60;;;;;;7404867;19;20196;-71
2023/06/17 02:17:15;;;;;;;;;;;25.30;61.60;;;;;;7383364;19;19963;-72
2023/06/17 02:19:44;;;;;;;;;;;25.40;61.50;;;;;;7383318;19;19911;-72
2023/06/17 02:22:12;;;;;;;;;;;25.40;61.50;;;;;;7383866;19;20006;-72
2023/06/17 02:24:41;;;;;;;;;;;25.40;61.30;;;;;;7383477;19;19927;-72
2023/06/17 02:27:09;;;;;;;;;;;25.40;61.50;;;;;;7383054;19;19924;-72
2023/06/17 02:29:40;;;;;;;;;;;25.40;61.70;;;;;;7406286;19;19911;-71
2023/06/17 02:32:09;;;;;;;;;;;25.40;61.80;;;;;;7383540;19;19920;-72
2023/06/17 02:34:37;;;;;;;;;;;25.40;61.80;;;;;;7396189;19;19924;-72
2023/06/17 02:37:07;;;;;;;;;;;25.40;61.60;;;;;;7388681;19;20242;-72
2023/06/17 02:39:35;;;;;;;;;;;25.30;61.60;;;;;;7383550;19;20206;-72
2023/06/17 02:42:04;;;;;;;;;;;25.30;61.90;;;;;;7383310;19;19911;-73
2023/06/17 02:44:32;;;;;;;;;;;25.30;62.30;;;;;;7403929;19;19942;-73
2023/06/17 02:47:03;;;;;;;;;;;25.30;62.70;;;;;;7382789;19;19915;-73
2023/06/17 02:49:32;;;;;;;;;;;25.20;63.00;;;;;;7383649;19;19932;-73
2023/06/17 02:52:00;;;;;;;;;;;25.20;63.30;;;;;;7382964;19;19912;-73
2023/06/17 02:54:29;;;;;;;;;;;25.10;63.30;;;;;;7383150;19;19966;-72
2023/06/17 02:56:57;;;;;;;;;;;25.10;63.30;;;;;;7383917;19;19911;-73
2023/06/17 02:59:26;;;;;;;;;;;25.10;63.70;;;;;;7404269;19;19917;-71
2023/06/17 03:01:54;;;;;;;;;;;25.10;63.80;;;;;;7383323;19;19911;-72
2023/06/17 03:04:25;;;;;;;;;;;25.10;63.50;;;;;;7382989;19;19911;-71
2023/06/17 03:06:54;;;;;;;;;;;25.10;63.30;;;;;;7383137;19;19911;-71
2023/06/17 03:09:22;;;;;;;;;;;25.10;63.40;;;;;;7384116;19;19911;-72
2023/06/17 03:11:51;;;;;;;;;;;25.10;63.60;;;;;;7382675;19;20223;-72
2023/06/17 03:14:20;;;;;;;;;;;25.10;63.80;;;;;;7401702;19;19919;-73
2023/06/17 03:16:49;;;;;;;;;;;25.10;63.90;;;;;;7381547;19;19911;-72
2023/06/17 03:19:17;;;;;;;;;;;25.10;63.90;;;;;;7380973;19;19919;-72
2023/06/17 03:21:49;;;;;;;;;;;25.00;63.50;;;;;;7381903;19;19976;-73
2023/06/17 03:24:18;;;;;;;;;;;25.00;63.80;;;;;;7382442;19;20230;-73
2023/06/17 03:26:47;;;;;;;;;;;25.00;64.20;;;;;;7403897;19;19902;-74
2023/06/17 03:29:15;;;;;;;;;;;25.00;64.20;;;;;;7380837;19;20542;-73
2023/06/17 03:31:44;;;;;;;;;;;25.00;63.90;;;;;;7380806;19;20381;-73
2023/06/17 03:34:12;;;;;;;;;;;25.00;64.20;;;;;;7381063;19;19906;-73
2023/06/17 03:36:41;;;;;;;;;;;25.00;63.90;;;;;;7381239;19;19926;-73
2023/06/17 03:39:12;;;;;;;;;;;25.00;63.30;;;;;;7380119;19;20264;-73
2023/06/17 03:41:40;;;;;;;;;;;25.00;63.20;;;;;;7401558;19;19910;-73
2023/06/17 03:44:09;;;;;;;;;;;24.90;63.90;;;;;;7380164;19;19915;-73
2023/06/17 03:46:37;;;;;;;;;;;24.90;64.30;;;;;;7382538;19;19911;-73
2023/06/17 03:49:06;;;;;;;;;;;24.90;64.40;;;;;;7393458;19;19911;-72
2023/06/17 03:51:34;;;;;;;;;;;24.90;64.50;;;;;;7384750;19;19974;-72
2023/06/17 03:54:02;;;;;;;;;;;24.80;64.50;;;;;;7388706;19;19970;-72
2023/06/17 03:56:33;;;;;;;;;;;24.80;64.80;;;;;;7409372;19;20152;-73
2023/06/17 03:59:02;;;;;;;;;;;24.80;64.70;;;;;;7387260;19;19958;-73
2023/06/17 04:01:30;;;;;;;;;;;24.80;64.40;;;;;;7388275;19;19924;-72
2023/06/17 04:03:59;;;;;;;;;;;24.80;64.70;;;;;;7386247;19;19914;-73
2023/06/17 04:06:27;;;;;;;;;;;24.80;65.00;;;;;;7387305;19;20168;-73
2023/06/17 04:08:56;;;;;;;;;;;24.80;65.10;;;;;;7385519;19;19910;-73
2023/06/17 04:11:24;;;;;;;;;;;24.80;65.20;;;;;;7408899;19;19915;-73
2023/06/17 04:13:55;;;;;;;;;;;24.90;65.20;;;;;;7386168;19;19914;-73
2023/06/17 04:16:23;;;;;;;;;;;24.90;65.20;;;;;;7386657;19;19911;-73
2023/06/17 04:18:55;;;;;;;;;;;24.90;65.30;;;;;;7385727;19;19923;-73
2023/06/17 04:21:23;;;;;;;;;;;24.90;65.30;;;;;;7385173;19;20128;-73
2023/06/17 04:23:51;;;;;;;;;;;24.90;65.80;;;;;;7387620;19;19914;-73
2023/06/17 04:26:20;;;;;;;;;;;25.00;66.00;;;;;;7408146;19;19910;-73
2023/06/17 04:28:48;;;;;;;;;;;24.90;65.90;;;;;;7384394;19;19982;-73
2023/06/17 04:31:19;;;;;;;;;;;24.90;65.80;;;;;;7387408;19;20275;-73
2023/06/17 04:33:48;;;;;;;;;;;24.90;66.10;;;;;;7388420;19;19911;-73
2023/06/17 04:36:17;;;;;;;;;;;24.90;66.30;;;;;;7388412;19;19917;-73
2023/06/17 04:38:49;;;;;;;;;;;24.90;66.20;;;;;;7409606;19;20230;-75
2023/06/17 04:41:18;;;;;;;;;;;24.90;66.50;;;;;;7386285;19;20138;-73
2023/06/17 04:43:48;;;;;;;;;;;25.00;66.70;;;;;;7385423;19;20183;-73
2023/06/17 04:46:19;;;;;;;;;;;25.00;66.70;;;;;;7385967;19;19932;-72
2023/06/17 04:48:48;;;;;;;;;;;25.00;66.40;;;;;;7387743;19;19911;-72
2023/06/17 04:51:18;;;;;;;;;;;25.00;66.20;;;;;;7400574;19;19911;-72
2023/06/17 04:53:46;;;;;;;;;;;25.10;66.90;;;;;;7411470;19;19914;-73
2023/06/17 04:56:15;;;;;;;;;;;25.10;67.30;;;;;;7387243;19;19915;-72
2023/06/17 04:58:43;;;;;;;;;;;25.10;67.20;;;;;;7385224;19;19918;-72
2023/06/17 05:01:13;;;;;;;;;;;25.10;67.10;;;;;;7385262;19;20227;-72
2023/06/17 05:03:44;;;;;;;;;;;25.20;66.50;;;;;;7383267;19;19974;-72
2023/06/17 05:06:12;;;;;;;;;;;25.20;66.30;;;;;;7384427;19;19911;-74
2023/06/17 05:08:41;;;;;;;;;;;25.30;66.90;;;;;;7405304;19;19907;-73
2023/06/17 05:11:09;;;;;;;;;;;25.30;67.30;;;;;;7385395;19;19966;-74
2023/06/17 05:13:37;;;;;;;;;;;25.30;67.70;;;;;;7384820;19;20230;-73
2023/06/17 05:16:06;;;;;;;;;;;25.40;68.00;;;;;;7384871;19;20234;-73
2023/06/17 05:18:35;;;;;;;;;;;25.40;67.70;;;;;;7385820;19;19915;-73
2023/06/17 05:21:07;;;;;;;;;;;25.50;67.60;;;;;;7386321;19;19915;-73
2023/06/17 05:23:36;;;;;;;;;;;25.50;67.70;;;;;;7411232;19;19955;-73
2023/06/17 05:26:04;;;;;;;;;;;25.60;67.80;;;;;;7390307;19;19914;-73
2023/06/17 05:28:33;;;;;;;;;;;25.60;68.20;;;;;;7389356;19;20240;-72
2023/06/17 05:31:01;;;;;;;;;;;25.70;68.40;;;;;;7401147;19;19914;-72
2023/06/17 05:33:31;;;;;;;;;;;25.70;68.30;;;;;;7385973;19;19907;-73
2023/06/17 05:36:00;;;;;;;;;;;25.80;68.30;;;;;;7383583;19;19971;-73
2023/06/17 05:38:32;;;;;;;;;;;25.80;68.10;;;;;;7405034;19;19917;-73
2023/06/17 05:41:00;;;;;;;;;;;25.90;68.20;;;;;;7384860;19;19915;-71
2023/06/17 05:43:28;;;;;;;;;;;25.90;68.40;;;;;;7383870;19;19911;-71
2023/06/17 05:45:57;;;;;;;;;;;26.00;68.60;;;;;;7384247;19;19924;-71
2023/06/17 05:48:25;;;;;;;;;;;26.10;68.70;;;;;;7383669;19;20203;-72
2023/06/17 05:50:54;;;;;;;;;;;26.10;68.60;;;;;;7384390;19;19915;-72
2023/06/17 05:53:22;;;;;;;;;;;26.10;68.20;;;;;;7406067;19;19914;-72
2023/06/17 05:55:53;;;;;;;;;;;26.20;68.10;;;;;;7384005;19;20255;-72
2023/06/17 05:58:22;;;;;;;;;;;26.20;67.70;;;;;;7385841;19;19907;-72
2023/06/17 06:00:50;;;;;;;;;;;26.30;67.70;;;;;;7386802;19;19910;-72
2023/06/17 06:03:19;;;;;;;;;;;26.30;68.10;;;;;;7385108;19;20215;-72
2023/06/17 06:05:47;;;;;;;;;;;26.30;68.30;;;;;;7404243;19;19910;-72
2023/06/17 06:08:16;;;;;;;;;;;26.30;68.50;;;;;;7382984;19;19971;-73
2023/06/17 06:10:44;;;;;;;;;;;26.40;68.40;;;;;;7383343;19;19924;-73
2023/06/17 06:13:15;;;;;;;;;;;26.50;68.10;;;;;;7382725;19;19907;-72
2023/06/17 06:15:44;;;;;;;;;;;26.60;67.20;;;;;;7383348;19;19983;-72
2023/06/17 06:18:12;;;;;;;;;;;26.60;65.90;;;;;;7383746;19;19915;-72
2023/06/17 06:20:40;;;;;;;;;;;26.70;64.70;;;;;;7403620;19;19923;-72
2023/06/17 06:23:09;;;;;;;;;;;26.70;64.20;;;;;;7382733;19;20217;-72
2023/06/17 06:25:37;;;;;;;;;;;26.80;64.10;;;;;;7382547;19;19934;-73
2023/06/17 06:28:06;;;;;;;;;;;26.80;63.40;;;;;;7383051;19;19910;-72
2023/06/17 06:30:37;;;;;;;;;;;26.80;62.20;;;;;;7383044;19;20174;-72
2023/06/17 06:33:05;;;;;;;;;;;26.90;62.20;;;;;;7382535;19;19919;-73
2023/06/17 06:35:34;;;;;;;;;;;26.90;61.90;;;;;;7403094;19;19919;-74
2023/06/17 06:38:02;;;;;;;;;;;27.00;61.60;;;;;;7382528;19;20153;-74
2023/06/17 06:40:31;;;;;;;;;;;27.00;61.20;;;;;;7382131;19;19947;-73
2023/06/17 06:43:00;;;;;;;;;;;27.10;61.10;;;;;;7383612;19;19971;-73
2023/06/17 06:45:28;;;;;;;;;;;27.10;61.20;;;;;;7382722;19;19907;-74
2023/06/17 06:47:59;;;;;;;;;;;27.20;60.80;;;;;;7383342;19;19911;-72
2023/06/17 06:50:27;;;;;;;;;;;27.20;60.60;;;;;;7407336;19;19915;-72
2023/06/17 06:52:58;;;;;;;;;;;27.20;60.50;;;;;;7383857;19;19966;-72
2023/06/17 06:55:26;;;;;;;;;;;27.30;60.90;;;;;;7381816;19;19907;-72
2023/06/17 06:57:55;;;;;;;;;;;27.30;60.70;;;;;;7382307;19;19910;-72
2023/06/17 07:00:24;;;;;;;;;;;27.30;60.60;;;;;;7384105;19;19915;-72
2023/06/17 07:02:52;;;;;;;;;;;27.40;60.50;;;;;;7385161;19;19911;-72
2023/06/17 07:05:26;;;;;;;;;;;27.40;60.50;;;;;;7409974;19;19914;-73
2023/06/17 07:07:55;;;;;;;;;;;27.50;60.40;;;;;;7389420;19;19903;-74
2023/06/17 07:10:23;;;;;;;;;;;27.50;60.80;;;;;;7383171;19;19915;-73
2023/06/17 07:12:52;;;;;;;;;;;27.50;61.00;;;;;;7381484;19;20197;-73
2023/06/17 07:15:22;;;;;;;;;;;27.60;60.90;;;;;;7382591;19;19907;-73
2023/06/17 07:17:51;;;;;;;;;;;27.60;60.70;;;;;;7382435;19;20271;-73
2023/06/17 07:20:19;;;;;;;;;;;27.60;61.00;;;;;;7403215;19;19927;-73
2023/06/17 07:22:50;;;;;;;;;;;27.50;60.90;;;;;;7380681;19;19978;-72
2023/06/17 07:25:19;;;;;;;;;;;27.60;60.60;;;;;;7379579;19;19958;-73
2023/06/17 07:27:47;;;;;;;;;;;27.70;60.60;;;;;;7382183;19;19907;-73
2023/06/17 07:30:16;;;;;;;;;;;27.70;60.30;;;;;;7380265;19;19963;-73
2023/06/17 07:32:44;;;;;;;;;;;27.70;59.90;;;;;;7403211;19;19906;-73
2023/06/17 07:35:13;;;;;;;;;;;27.80;60.30;;;;;;7381878;19;19950;-73
2023/06/17 07:37:41;;;;;;;;;;;27.90;60.90;;;;;;7381208;19;20187;-73
2023/06/17 07:40:13;;;;;;;;;;;27.90;61.10;;;;;;7382560;19;20255;-75
2023/06/17 07:42:42;;;;;;;;;;;27.90;61.00;;;;;;7383495;19;19924;-74
2023/06/17 07:45:11;;;;;;;;;;;28.00;60.80;;;;;;7382009;19;20150;-74
2023/06/17 07:47:39;;;;;;;;;;;28.00;60.50;;;;;;7405165;19;19974;-75
2023/06/17 07:50:09;;;;;;;;;;;28.00;60.70;;;;;;7381442;19;20174;-74
2023/06/17 07:52:38;;;;;;;;;;;28.00;60.70;;;;;;7382975;19;20127;-75
2023/06/17 07:55:07;;;;;;;;;;;28.10;61.50;;;;;;7383098;19;20195;-74
2023/06/17 07:57:38;;;;;;;;;;;28.10;61.00;;;;;;7383630;19;20141;-73
2023/06/17 08:00:12;;;;;;;;;;;28.10;60.60;;;;;;7380111;19;19971;-75
2023/06/17 08:02:41;;;;;;;;;;;28.20;60.70;;;;;;7403746;19;19915;-74
2023/06/17 08:05:10;;;;;;;;;;;28.20;60.80;;;;;;7380756;19;19903;-74
2023/06/17 08:07:39;;;;;;;;;;;28.20;61.30;;;;;;7380182;19;20132;-73
2023/06/17 08:10:08;;;;;;;;;;;28.20;61.00;;;;;;7380328;19;19910;-73
2023/06/17 08:12:39;;;;;;;;;;;28.30;59.90;;;;;;7380895;19;19963;-72
2023/06/17 08:15:08;;;;;;;;;;;28.30;58.60;;;;;;7380102;19;20187;-72
2023/06/17 08:17:37;;;;;;;;;;;28.40;57.70;;;;;;7399873;19;19959;-73
2023/06/17 08:20:06;;;;;;;;;;;28.40;57.60;;;;;;7379981;19;19959;-73
2023/06/17 08:22:35;;;;;;;;;;;28.40;57.30;;;;;;7379006;19;20222;-72
2023/06/17 08:25:04;;;;;;;;;;;28.50;56.90;;;;;;7379272;19;19903;-74
2023/06/17 08:27:33;;;;;;;;;;;28.50;55.60;;;;;;7381037;19;19928;-74
2023/06/17 08:30:07;;;;;;;;;;;28.50;55.90;;;;;;7379734;19;19927;-73
2023/06/17 08:32:35;;;;;;;;;;;28.50;55.70;;;;;;7402942;19;19915;-72
2023/06/17 08:35:06;;;;;;;;;;;28.50;55.10;;;;;;7380607;19;20537;-73
2023/06/17 08:37:35;;;;;;;;;;;28.60;55.90;;;;;;7384711;19;19918;-74
2023/06/17 08:40:04;;;;;;;;;;;28.60;56.40;;;;;;7387376;19;20001;-75
2023/06/17 08:42:32;;;;;;;;;;;28.70;56.80;;;;;;7388900;19;20198;-73
2023/06/17 08:45:02;;;;;;;;;;;28.70;56.70;;;;;;7385667;19;19990;-73
2023/06/17 08:47:33;;;;;;;;;;;28.80;56.50;;;;;;7406367;19;20333;-75
2023/06/17 08:50:01;;;;;;;;;;;28.90;56.50;;;;;;7385977;19;19970;-75
2023/06/17 08:52:31;;;;;;;;;;;28.90;56.30;;;;;;7392297;19;19907;-71
2023/06/17 08:55:01;;;;;;;;;;;29.00;56.20;;;;;;7390607;19;19920;-73
2023/06/17 08:57:31;;;;;;;;;;;29.10;56.30;;;;;;7388461;19;19919;-73
2023/06/17 08:59:59;;;;;;;;;;;29.10;56.20;;;;;;7385286;19;19938;-74
2023/06/17 09:02:28;;;;;;;;;;;29.20;56.10;;;;;;7408204;19;19914;-74
2023/06/17 09:04:59;;;;;;;;;;;29.20;56.30;;;;;;7386374;19;19903;-74
2023/06/17 09:07:28;;;;;;;;;;;29.20;56.40;;;;;;7385261;19;19911;-73
2023/06/17 09:09:57;;;;;;;;;;;29.20;56.30;;;;;;7386143;19;20022;-74
2023/06/17 09:12:27;;;;;;;;;;;29.20;56.40;;;;;;7388064;19;19910;-73
2023/06/17 09:14:56;;;;;;;;;;;29.20;56.40;;;;;;7392697;19;19918;-72
2023/06/17 09:17:29;;;;;;;;;;;29.20;56.40;;;;;;7411942;19;19911;-73
2023/06/17 09:20:09;;;;;;;;;;;29.20;56.50;;;;;;7386863;19;19928;-74
2023/06/17 09:22:38;;;;;;;;;;;29.20;56.20;;;;;;7386452;19;19909;-74
2023/06/17 09:25:07;;;;;;;;;;;29.30;56.30;;;;;;7385859;19;20294;-73
2023/06/17 09:27:36;;;;;;;;;;;29.30;56.80;;;;;;7385867;19;20254;-73
2023/06/17 09:30:09;;;;;;;;;;;29.30;56.60;;;;;;7384582;19;20219;-74
2023/06/17 09:32:42;;;;;;;;;;;29.30;56.70;;;;;;7405111;19;19924;-74
2023/06/17 09:35:16;;;;;;;;;;;29.30;56.90;;;;;;7384976;19;19907;-73
2023/06/17 09:37:45;;;;;;;;;;;29.40;57.10;;;;;;7385194;19;19910;-75
2023/06/17 09:40:14;;;;;;;;;;;29.40;57.30;;;;;;7385423;19;19917;-72
2023/06/17 09:42:44;;;;;;;;;;;29.40;57.40;;;;;;7385429;19;19911;-73
2023/06/17 09:45:14;;;;;;;;;;;29.30;57.20;;;;;;7384422;19;19907;-73
2023/06/17 09:47:42;;;;;;;;;;;29.30;57.70;;;;;;7407854;19;19907;-73
2023/06/17 09:50:11;;;;;;;;;;;29.20;57.50;;;;;;7384845;19;19907;-73
2023/06/17 09:52:43;;;;;;;;;;;29.30;57.50;;;;;;7386853;19;19907;-74
2023/06/17 09:55:12;;;;;;;;;;;29.30;57.60;;;;;;7386142;19;19932;-73
2023/06/17 09:57:42;;;;;;;;;;;29.30;57.70;;;;;;7385739;19;19911;-72
2023/06/17 10:00:14;;;;;;;;;;;29.30;57.30;;;;;;7385707;19;19923;-72
2023/06/17 10:02:43;;;;;;;;;;;29.30;57.50;;;;;;7406937;19;19911;-72
2023/06/17 10:05:12;;;;;;;;;;;29.40;57.80;;;;;;7386334;19;19959;-73
2023/06/17 10:07:45;;;;;;;;;;;29.40;57.50;;;;;;7388084;19;19907;-72
2023/06/17 10:10:15;;;;;;;;;;;29.50;56.80;;;;;;7384547;19;19963;-71
2023/06/17 10:12:45;;;;;;;;;;;29.50;56.80;;;;;;7384748;19;19970;-73
2023/06/17 10:15:15;;;;;;;;;;;29.50;57.00;;;;;;7386192;19;19919;-71
2023/06/17 10:17:46;;;;;;;;;;;29.70;57.00;;;;;;7411421;19;19922;-72
2023/06/17 10:20:15;;;;;;;;;;;29.80;56.30;;;;;;7384131;19;19914;-73
2023/06/17 10:22:54;;;;;;;;;;;29.80;56.80;;;;;;7384218;19;19927;-72
2023/06/17 10:25:24;;;;;;;;;;;29.90;56.30;;;;;;7385509;19;20146;-73
2023/06/17 10:27:52;;;;;;;;;;;29.90;56.40;;;;;;7383761;19;19918;-72
2023/06/17 10:30:27;;;;;;;;;;;29.90;56.80;;;;;;7384198;19;19970;-72
2023/06/17 10:33:01;;;;;;;;;;;29.80;57.30;;;;;;7382717;19;19911;-72
2023/06/17 10:35:41;;;;;;;;;;;29.70;57.30;;;;;;7405049;19;19907;-72
2023/06/17 10:38:30;;;;;;;;;;;29.80;57.30;;;;;;7384584;19;19924;-73
2023/06/17 10:40:59;;;;;;;;;;;29.80;56.80;;;;;;7384620;19;19934;-72
2023/06/17 10:43:29;;;;;;;;;;;29.80;57.00;;;;;;7384476;19;19937;-73
2023/06/17 10:46:01;;;;;;;;;;;29.80;57.30;;;;;;7385414;19;19943;-75
2023/06/17 10:48:31;;;;;;;;;;;29.90;57.30;;;;;;7384030;19;20233;-72
2023/06/17 10:51:02;;;;;;;;;;;29.90;56.50;;;;;;7383240;19;19919;-73
2023/06/17 10:53:35;;;;;;;;;;;29.90;56.40;;;;;;7406998;19;19919;-73
2023/06/17 10:56:06;;;;;;;;;;;30.00;56.70;;;;;;7384179;19;19911;-72
2023/06/17 10:58:37;;;;;;;;;;;30.10;57.40;;;;;;7385158;19;19910;-72
2023/06/17 11:01:06;;;;;;;;;;;30.10;56.50;;;;;;7382634;19;19927;-73
2023/06/17 11:03:35;;;;;;;;;;;30.20;56.40;;;;;;7383411;19;19911;-73
2023/06/17 11:06:04;;;;;;;;;;;30.30;56.70;;;;;;7381743;19;19923;-73
2023/06/17 11:08:44;;;;;;;;;;;30.40;55.90;;;;;;7403818;19;19934;-72
2023/06/17 11:11:13;;;;;;;;;;;30.40;55.90;;;;;;7383381;19;20203;-73
2023/06/17 11:13:43;;;;;;;;;;;30.50;56.00;;;;;;7383828;19;20136;-73
2023/06/17 11:16:30;;;;;;;;;;;30.40;55.90;;;;;;7382646;19;19983;-77
2023/06/17 11:19:01;;;;;;;;;;;30.50;56.10;;;;;;7382839;19;19914;-74
2023/06/17 11:21:30;;;;;;;;;;;30.30;56.50;;;;;;7388864;19;19922;-75
2023/06/17 11:24:01;;;;;;;;;;;30.40;56.70;;;;;;7399506;19;19928;-74
2023/06/17 11:26:31;;;;;;;;;;;30.40;56.90;;;;;;7406875;19;19915;-75
2023/06/17 11:29:04;;;;;;;;;;;30.50;56.60;;;;;;7382189;19;19911;-74
2023/06/17 11:31:43;;;;;;;;;;;30.60;56.40;;;;;;7382156;19;20219;-73
2023/06/17 11:34:14;;;;;;;;;;;30.60;56.50;;;;;;7381881;19;19914;-74
2023/06/17 11:36:43;;;;;;;;;;;30.70;56.30;;;;;;7381078;19;19903;-74
2023/06/17 11:39:15;;;;;;;;;;;30.70;56.50;;;;;;7380177;19;19910;-74
2023/06/17 11:41:44;;;;;;;;;;;30.80;56.50;;;;;;7404506;19;19919;-74
2023/06/17 11:44:14;;;;;;;;;;;30.90;56.20;;;;;;7379746;19;19914;-75
2023/06/17 11:46:43;;;;;;;;;;;31.00;55.50;;;;;;7381985;19;19903;-75
2023/06/17 11:49:12;;;;;;;;;;;31.00;55.50;;;;;;7381904;19;19907;-74
2023/06/17 11:51:42;;;;;;;;;;;31.00;55.40;;;;;;7380281;19;20235;-74
2023/06/17 11:54:20;;;;;;;;;;;;;;;;;;;;;
2023/06/17 11:56:55;;;;;;;;;;;31.20;55.80;;;;;;7399841;19;19921;-72
2023/06/17 11:59:24;;;;;;;;;;;31.20;55.20;;;;;;7402133;19;20206;-72
2023/06/17 12:01:53;;;;;;;;;;;31.20;55.40;;;;;;7380143;19;19930;-71
2023/06/17 12:04:22;;;;;;;;;;;31.30;54.80;;;;;;7380703;19;19911;-72
2023/06/17 12:06:52;;;;;;;;;;;31.30;54.90;;;;;;7382447;19;19944;-75
2023/06/17 12:09:24;;;;;;;;;;;31.30;55.70;;;;;;7380934;19;20159;-77
2023/06/17 12:11:56;;;;;;;;;;;31.30;55.10;;;;;;7388196;19;19918;-74
2023/06/17 12:14:26;;;;;;;;;;;31.40;54.50;;;;;;7425629;19;19939;-76
2023/06/17 12:17:12;;;;;;;;;;;31.40;54.70;;;;;;7398374;19;19931;-77
2023/06/17 12:19:41;;;;;;;;;;;31.60;54.90;;;;;;7388169;19;19911;-78
2023/06/17 12:22:14;;;;;;;;;;;31.70;54.50;;;;;;7388301;19;20212;-77
2023/06/17 12:24:47;;;;;;;;;;;31.70;54.30;;;;;;7389449;19;19909;-76
2023/06/17 12:27:20;;;;;;;;;;;31.70;53.80;;;;;;7387182;19;19911;-77
2023/06/17 12:29:51;;;;;;;;;;;31.70;53.50;;;;;;7405352;19;19907;-76
2023/06/17 12:32:29;;;;;;;;;;;;;;;;;;;;;
2023/06/17 12:34:58;;;;;;;;;;;31.70;54.10;;;;;;7394221;19;19919;-75
2023/06/17 12:37:33;;;;;;;;;;;31.80;53.80;;;;;;7391111;19;19915;-75
2023/06/17 12:40:03;;;;;;;;;;;31.70;53.80;;;;;;7387528;19;20112;-75
2023/06/17 12:42:39;;;;;;;;;;;31.80;54.00;;;;;;7385908;19;20212;-76
2023/06/17 12:45:09;;;;;;;;;;;31.80;53.10;;;;;;7386824;19;19915;-76
2023/06/17 12:47:40;;;;;;;;;;;31.90;52.20;;;;;;7410092;19;19951;-77
2023/06/17 12:50:10;;;;;;;;;;;32.00;52.00;;;;;;7386332;19;19907;-77
2023/06/17 12:52:38;;;;;;;;;;;32.10;51.60;;;;;;7386731;19;19910;-77
2023/06/17 12:55:09;;;;;;;;;;;32.20;51.70;;;;;;7386676;19;19911;-76
2023/06/17 12:57:42;;;;;;;;;;;32.20;51.70;;;;;;7388640;19;19920;-75
2023/06/17 13:00:12;;;;;;;;;;;32.20;52.00;;;;;;7386503;19;19915;-77
2023/06/17 13:02:41;;;;;;;;;;;32.20;52.30;;;;;;7406704;19;19914;-77
2023/06/17 13:05:26;;;;;;;;;;;32.20;51.40;;;;;;7387790;19;20195;-77
2023/06/17 13:07:54;;;;;;;;;;;32.10;51.20;;;;;;7387935;19;19918;-76
2023/06/17 13:10:26;;;;;;;;;;;32.00;51.40;;;;;;7386622;19;19962;-77
2023/06/17 13:13:05;;;;;;;;;;;32.00;52.00;;;;;;7387121;19;19934;-77
2023/06/17 13:15:33;;;;;;;;;;;31.80;52.20;;;;;;7385068;19;19910;-75
2023/06/17 13:18:01;;;;;;;;;;;31.80;52.70;;;;;;7386428;19;19919;-75
2023/06/17 13:20:30;;;;;;;;;;;31.70;52.80;;;;;;7405240;19;20133;-76
2023/06/17 13:22:59;;;;;;;;;;;31.70;52.70;;;;;;7383584;19;19903;-76
2023/06/17 13:25:28;;;;;;;;;;;31.70;52.90;;;;;;7386287;19;20543;-75
2023/06/17 13:27:56;;;;;;;;;;;31.50;52.30;;;;;;7405413;19;19999;-75
2023/06/17 13:30:27;;;;;;;;;;;31.50;52.70;;;;;;7389166;19;19919;-76
2023/06/17 13:32:56;;;;;;;;;;;31.50;52.50;;;;;;7387156;19;19918;-75
2023/06/17 13:35:25;;;;;;;;;;;31.80;52.60;;;;;;7405436;19;19914;-75
2023/06/17 13:37:54;;;;;;;;;;;32.00;51.80;;;;;;7385263;19;19911;-75
2023/06/17 13:40:23;;;;;;;;;;;32.20;52.20;;;;;;7386823;19;19918;-75
2023/06/17 13:42:52;;;;;;;;;;;32.40;52.20;;;;;;7384446;19;19911;-75
2023/06/17 13:45:20;;;;;;;;;;;32.60;52.00;;;;;;7383883;19;19974;-76
2023/06/17 13:47:51;;;;;;;;;;;32.60;50.90;;;;;;7404279;19;20179;-75
2023/06/17 13:50:20;;;;;;;;;;;32.50;50.80;;;;;;7384503;19;20135;-75
2023/06/17 13:52:48;;;;;;;;;;;32.40;51.20;;;;;;7386511;19;19907;-75
2023/06/17 13:55:17;;;;;;;;;;;32.30;51.80;;;;;;7385219;19;19931;-75
2023/06/17 13:57:45;;;;;;;;;;;32.30;52.20;;;;;;7385510;19;19910;-75
2023/06/17 14:00:14;;;;;;;;;;;32.30;52.50;;;;;;7386451;19;20152;-75
2023/06/17 14:02:42;;;;;;;;;;;32.20;52.40;;;;;;7407870;19;19915;-75
2023/06/17 14:05:13;;;;;;;;;;;32.20;52.20;;;;;;7385196;19;19915;-75
2023/06/17 14:07:42;;;;;;;;;;;32.30;52.30;;;;;;7384709;19;20174;-75
2023/06/17 14:10:11;;;;;;;;;;;32.30;52.50;;;;;;7384711;19;19918;-75
2023/06/17 14:12:42;;;;;;;;;;;32.30;52.50;;;;;;7384983;19;19928;-75
2023/06/17 14:15:11;;;;;;;;;;;32.10;52.50;;;;;;7382836;19;19904;-77
2023/06/17 14:17:39;;;;;;;;;;;32.20;52.90;;;;;;7405434;19;19921;-76
2023/06/17 14:20:08;;;;;;;;;;;32.10;52.90;;;;;;7383742;19;19916;-76
2023/06/17 14:22:41;;;;;;;;;;;32.00;53.10;;;;;;7383455;19;20243;-76
2023/06/17 14:25:11;;;;;;;;;;;32.00;53.10;;;;;;7383719;19;19914;-76
2023/06/17 14:27:40;;;;;;;;;;;31.90;53.40;;;;;;7384129;19;19919;-76
2023/06/17 14:30:09;;;;;;;;;;;31.90;54.00;;;;;;7383740;19;19928;-76
2023/06/17 14:32:38;;;;;;;;;;;31.80;54.80;;;;;;7403636;19;19917;-76
2023/06/17 14:35:07;;;;;;;;;;;31.80;55.10;;;;;;7383021;19;19927;-76